EUFO2: Eufaula Lake

Data processed at Sat Jun 16 2018 16:30


All information presented herein is the property of the government of the United States of America and may be revised or deleted at any time without prior notice.
Dissemination of this information without the expressed written consent of the Public Affairs Office, Tulsa District U.S. Army Corps of Engineers is strictly prohibited.
These data are gathered electronically and, as presented, have not undergone any form of quality control. These data are not guaranteed to be valid or correct.
Go to home page.
Go to station list.

Upstream stations:

Downstream station:
Previous Day
Next Day
Current Day
    
SHEF ID:       EUFO2     Eufaula Lake
STATION TYPE:  RESERVOIR
Normal Pool:  Bottom =   565.00, Top =   585.00

               PRECIP ELEVATION   STORAGE   TW-ELEV    INFLOW   RELEASE  AIR-TEMP  WIND-DIRWIND-SPEED REL-HUMID SOLAR-RAD   VOLTAGE  BAT-LOAD
                   in        ft     ac-ft        ft       cfs       cfs         F       deg       mph         %      W/m2      volt      volt
              Ccp-Rev   Ccp-Rev   Ccp-Rev   Ccp-Rev  Regi-Rev  Regi-Rev   Ccp-Rev   Ccp-Rev   Ccp-Rev   Ccp-Rev   Ccp-Rev   Ccp-Rev   Ccp-Rev
(US/Central)
06/14 00:00      0.00    585.18   2211878    483.67        30        30     77.36    109.70      1.74     85.84      0.00     13.81     13.59
06/14 01:00      0.00    585.18   2211878    483.41        30        30     75.38    125.70      2.09     88.58      0.00     13.81     13.59
06/14 02:00      0.00    585.19   2212824    483.20        30        30     73.94    125.60      1.63     92.97      0.00     13.80     13.59
06/14 03:00      0.00    585.19   2212824    483.05        30        30     72.18    127.80      1.74     94.92      0.00     13.80     13.59
06/14 04:00      0.00    585.18   2211878    482.93      1916        30     75.83    132.30      3.11     78.21      0.00     13.80     13.59
06/14 05:00      0.00    585.19   2212824    482.86      1915        30     75.15    120.90      3.91     80.03      0.00     13.80     13.59
06/14 06:00      0.00    585.20   2213770    482.81      1917        30     72.84    121.60      1.81     88.57      0.00     13.80     13.59
06/14 07:00      0.00    585.20   2213770    482.84      1911        30     76.24    133.90      1.99     75.69     10.00     13.80     13.59
06/14 08:00      0.00    585.21   2214715    482.77      1912        30     79.43    156.80      2.97     68.92     45.00     13.80     13.59
06/14 09:00      0.00    585.21   2214715    482.75        20        30     83.71    164.90      3.84     60.13     65.00     13.79     13.59
06/14 10:00      0.00    585.24   2217552    482.72        15        30     86.16    229.70      4.80     55.25    325.00     13.80     13.59
06/14 11:00      0.00    585.24   2217552    482.72         7        30     88.12    224.30      6.15     50.05    714.00     13.80     13.59
06/14 12:00      0.00    585.24   2217552    482.72         7        30     89.89    242.60      6.64     47.99    857.00     13.80     13.59
06/14 13:00      0.00    585.22   2215661    482.72         0        30     91.18    273.30      5.32     47.43    933.00     13.80     13.59
06/14 14:00      0.00    585.21   2214715    483.62         0        30     93.61    228.80      3.74     37.30    971.00     13.80     13.59
06/14 15:00      0.00    585.18   2211878    486.19         0      5500     95.25    165.10      3.71     35.59   1006.00     13.83     13.59
06/14 16:00      0.00    585.17   2210933    488.44         0     12255     95.25    166.10      5.19     34.73    691.00     13.81     13.59
06/14 17:00      0.00    585.18   2211878    488.51         0     12255     96.69    158.70      3.62     32.78    742.00     13.81     13.59
06/14 18:00      0.00    585.19   2212824    486.42         0      1750     95.81    204.20      4.03     31.19    562.00     13.81     13.59
06/14 19:00      0.00    585.16   2209987    485.40         0        30     87.57    119.10      5.63     47.55    418.00     13.81     13.59
06/14 20:00      0.00    585.16   2209987    484.73         0        30     81.00    109.90      8.99     61.42    150.00     13.82     13.59
06/14 21:00      0.00    585.17   2210933    484.19         0        30     79.66    115.10      3.97     70.08     26.00     13.82     13.59
06/14 22:00      0.00    585.16   2209987    483.81         0        30     77.13    125.10      2.35     79.42      0.00     13.81     13.59
06/14 23:00      0.00    585.15   2209041    483.51         7        30     76.03    126.20      2.65     84.79      0.00     13.82     13.59